Time;durP1;ratioP1;P1;durP2;ratioP2;P2;SDS_P1;SDS_P2;PMS_P1;PMS_P2;Temp;Humidity;BMP_temperature;BMP_pressure;BME280_temperature;BME280_humidity;BME280_pressure;Samples;Min_cycle;Max_cycle;Signal;HPM_P1;HPM_P2
2023/05/27 00:00:45;;;;;;;18.07;7.57;;;;;;;8.74;100.00;103038.09;5018968;28;20460;-42
2023/05/27 00:03:14;;;;;;;20.10;7.70;;;;;;;8.74;100.00;103032.78;5018938;28;20517;-41
2023/05/27 00:05:44;;;;;;;16.30;6.47;;;;;;;8.72;100.00;103028.56;5018393;28;20476;-42
2023/05/27 00:08:12;;;;;;;19.33;6.90;;;;;;;8.66;100.00;103018.44;5019043;28;20531;-44
2023/05/27 00:10:40;;;;;;;21.50;7.60;;;;;;;8.68;100.00;103017.34;5018949;28;20470;-42
2023/05/27 00:13:07;;;;;;;18.30;7.50;;;;;;;8.70;100.00;103020.72;5018767;28;20498;-45
2023/05/27 00:15:35;;;;;;;16.20;8.20;;;;;;;8.69;100.00;103032.31;5018019;28;20473;-48
2023/05/27 00:18:03;;;;;;;13.50;6.90;;;;;;;8.70;100.00;103036.66;5018450;28;20433;-46
2023/05/27 00:20:30;;;;;;;19.40;7.10;;;;;;;8.71;100.00;103019.75;5018961;28;20472;-44
2023/05/27 00:23:00;;;;;;;14.30;7.10;;;;;;;8.65;100.00;103011.44;5020405;28;20437;-47
2023/05/27 00:25:27;;;;;;;14.23;6.63;;;;;;;8.61;100.00;103013.50;5022280;28;20460;-45
2023/05/27 00:27:56;;;;;;;15.60;6.43;;;;;;;8.61;100.00;103029.44;5007530;28;20433;-48
2023/05/27 00:30:24;;;;;;;18.77;6.20;;;;;;;8.61;100.00;103020.63;5003184;28;20477;-44
2023/05/27 00:32:52;;;;;;;26.17;7.90;;;;;;;8.58;100.00;103028.84;5002439;28;20434;-42
2023/05/27 00:35:20;;;;;;;16.50;7.20;;;;;;;8.51;100.00;103003.78;5002162;28;20469;-42
2023/05/27 00:37:48;;;;;;;16.13;7.47;;;;;;;8.47;100.00;103008.50;5002617;28;20496;-42
2023/05/27 00:40:22;;;;;;;18.40;6.90;;;;;;;8.47;100.00;103021.78;5002400;28;20517;-45
2023/05/27 00:42:50;;;;;;;25.60;8.10;;;;;;;8.48;100.00;103023.50;5001983;28;20434;-46
2023/05/27 00:45:17;;;;;;;15.97;7.93;;;;;;;8.42;100.00;103016.03;5002138;28;20480;-43
2023/05/27 00:47:45;;;;;;;15.30;6.90;;;;;;;8.39;100.00;103026.91;5002522;28;20444;-42
2023/05/27 00:50:13;;;;;;;13.83;6.80;;;;;;;8.40;100.00;103020.59;5002660;28;20482;-42
2023/05/27 00:52:41;;;;;;;15.50;7.93;;;;;;;8.38;100.00;103016.38;5001994;28;20434;-41
2023/05/27 00:55:10;;;;;;;19.37;8.10;;;;;;;8.40;100.00;103022.41;5001731;28;20793;-42
2023/05/27 00:57:39;;;;;;;18.60;6.93;;;;;;;8.35;100.00;103022.81;5002467;28;20433;-41
2023/05/27 01:00:11;;;;;;;24.13;8.80;;;;;;;8.31;100.00;103024.03;5002570;28;20430;-45
2023/05/27 01:02:41;;;;;;;16.10;6.27;;;;;;;8.26;100.00;103034.16;5002022;28;20434;-42
2023/05/27 01:05:10;;;;;;;17.33;7.10;;;;;;;8.28;100.00;103027.78;4998641;28;20500;-42
2023/05/27 01:07:51;;;;;;;15.97;7.80;;;;;;;8.22;100.00;103019.41;5002532;28;20434;-46
2023/05/27 01:10:27;;;;;;;21.70;8.00;;;;;;;8.15;100.00;103010.28;5002226;28;20546;-42
2023/05/27 01:13:07;;;;;;;22.13;8.70;;;;;;;8.17;100.00;103022.47;5001916;28;20410;-42
2023/05/27 01:15:35;;;;;;;24.43;8.03;;;;;;;8.18;100.00;103024.13;5000449;28;20476;-43
2023/05/27 01:18:04;;;;;;;18.67;9.17;;;;;;;8.17;100.00;103025.13;5001335;28;20434;-43
2023/05/27 01:20:33;;;;;;;22.93;8.73;;;;;;;8.14;100.00;103019.22;5001144;28;20434;-42
2023/05/27 01:23:03;;;;;;;28.33;8.90;;;;;;;8.07;100.00;103020.69;5000970;28;20434;-43
2023/05/27 01:25:31;;;;;;;18.13;7.80;;;;;;;8.02;100.00;103015.75;5001286;28;20474;-42
2023/05/27 01:27:59;;;;;;;21.23;7.67;;;;;;;8.03;100.00;103012.13;5010249;28;20465;-42
2023/05/27 01:30:27;;;;;;;19.77;7.90;;;;;;;8.03;100.00;103030.72;5021758;28;20914;-45
2023/05/27 01:32:59;;;;;;;19.50;7.93;;;;;;;8.00;100.00;103027.47;5021156;28;20457;-41
2023/05/27 01:35:31;;;;;;;20.03;8.07;;;;;;;7.97;100.00;103019.75;5018607;28;20488;-42
2023/05/27 01:38:06;;;;;;;18.97;8.70;;;;;;;7.94;100.00;103006.72;5021763;28;20414;-47
2023/05/27 01:40:35;;;;;;;16.20;7.97;;;;;;;7.92;100.00;103011.28;5021924;28;20460;-42
2023/05/27 01:43:03;;;;;;;16.33;7.60;;;;;;;7.90;100.00;103013.25;5020826;28;20433;-45
2023/05/27 01:45:32;;;;;;;23.20;9.43;;;;;;;7.90;100.00;103019.41;5021026;28;20887;-44
2023/05/27 01:48:00;;;;;;;28.20;8.63;;;;;;;7.87;100.00;103018.78;5021532;28;20452;-44
2023/05/27 01:50:30;;;;;;;16.87;8.40;;;;;;;7.86;100.00;103017.94;5021046;28;20507;-43
2023/05/27 01:52:58;;;;;;;22.70;8.40;;;;;;;7.83;100.00;103023.50;5021306;28;20437;-45
2023/05/27 01:55:27;;;;;;;26.03;8.00;;;;;;;7.80;100.00;103023.75;5020789;28;20464;-42
2023/05/27 01:57:55;;;;;;;22.30;7.70;;;;;;;7.80;100.00;103026.41;5021032;28;20441;-42
2023/05/27 02:00:24;;;;;;;20.00;7.67;;;;;;;7.80;100.00;103018.44;5020467;28;20439;-46
2023/05/27 02:02:52;;;;;;;18.60;8.27;;;;;;;7.78;100.00;103021.22;5020848;28;20461;-42
2023/05/27 02:05:20;;;;;;;20.43;8.17;;;;;;;7.73;100.00;103015.47;5020646;28;20461;-42
2023/05/27 02:07:47;;;;;;;20.60;8.60;;;;;;;7.72;100.00;103007.59;5021474;28;20429;-44
2023/05/27 02:10:15;;;;;;;18.30;7.30;;;;;;;7.76;100.00;103015.19;5021047;28;20460;-42
2023/05/27 02:12:44;;;;;;;20.87;7.83;;;;;;;7.77;100.00;103016.03;5020943;28;20528;-45
2023/05/27 02:15:12;;;;;;;21.97;8.10;;;;;;;7.72;100.00;103011.09;5020208;28;20471;-42
2023/05/27 02:17:40;;;;;;;26.33;9.20;;;;;;;7.70;100.00;103005.06;5021408;28;20444;-45
2023/05/27 02:20:08;;;;;;;21.93;9.47;;;;;;;7.71;100.00;103001.44;5020835;28;20437;-43
2023/05/27 02:22:36;;;;;;;23.27;8.43;;;;;;;7.65;100.00;103006.38;5020715;28;20532;-43
2023/05/27 02:25:04;;;;;;;21.73;8.30;;;;;;;7.63;100.00;103010.97;5019727;28;20452;-43
2023/05/27 02:27:32;;;;;;;20.53;8.97;;;;;;;7.63;100.00;103013.63;5013440;28;20449;-42
2023/05/27 02:30:01;;;;;;;21.90;8.23;;;;;;;7.66;100.00;103022.22;5020994;28;20487;-43
2023/05/27 02:32:30;;;;;;;28.53;9.13;;;;;;;7.61;100.00;103020.91;5020062;28;20668;-42
2023/05/27 02:34:58;;;;;;;22.70;10.13;;;;;;;7.59;100.00;103014.84;5020358;28;20457;-42
2023/05/27 02:37:27;;;;;;;28.20;9.43;;;;;;;7.56;100.00;103015.94;5019854;28;20966;-43
2023/05/27 02:39:56;;;;;;;25.13;8.70;;;;;;;7.55;100.00;103019.56;5020099;28;20457;-43
2023/05/27 02:42:23;;;;;;;27.87;9.40;;;;;;;7.58;100.00;103013.19;5020258;28;20456;-43
2023/05/27 02:44:51;;;;;;;21.67;8.97;;;;;;;7.55;100.00;103010.75;5020151;28;20456;-45
2023/05/27 02:47:20;;;;;;;21.17;8.23;;;;;;;7.55;100.00;103001.00;5019340;28;20488;-42
2023/05/27 02:49:48;;;;;;;19.73;9.20;;;;;;;7.58;100.00;103007.84;5020640;28;20907;-43
2023/05/27 02:52:16;;;;;;;24.03;9.10;;;;;;;7.58;100.00;103005.22;5020170;28;20549;-43
2023/05/27 02:54:44;;;;;;;20.53;9.77;;;;;;;7.60;100.00;103003.25;5021101;28;20461;-43
2023/05/27 02:57:12;;;;;;;17.97;9.60;;;;;;;7.59;100.00;103007.72;5020472;28;20489;-42
2023/05/27 02:59:40;;;;;;;19.33;8.40;;;;;;;7.62;100.00;103006.63;5021015;28;20457;-43
2023/05/27 03:02:08;;;;;;;28.03;8.80;;;;;;;7.65;100.00;103014.34;5019618;28;20437;-44
2023/05/27 03:04:38;;;;;;;22.33;8.03;;;;;;;7.67;100.00;103017.75;5019986;28;20487;-41
2023/05/27 03:07:06;;;;;;;17.07;8.30;;;;;;;7.67;100.00;103013.28;5019926;28;20472;-42
2023/05/27 03:09:34;;;;;;;22.70;9.30;;;;;;;7.68;100.00;103008.78;5019930;28;20436;-42
2023/05/27 03:12:01;;;;;;;35.70;9.30;;;;;;;7.71;100.00;103004.09;5019898;28;20603;-43
2023/05/27 03:14:29;;;;;;;22.70;8.50;;;;;;;7.78;100.00;103015.94;5019397;28;20696;-42
2023/05/27 03:16:57;;;;;;;22.20;8.57;;;;;;;7.83;100.00;103010.22;5019871;28;20485;-42
2023/05/27 03:19:25;;;;;;;20.47;9.47;;;;;;;7.89;100.00;103009.72;5019644;28;20795;-43
2023/05/27 03:21:54;;;;;;;20.23;9.50;;;;;;;7.94;100.00;103010.22;5019341;28;20483;-42
2023/05/27 03:24:22;;;;;;;21.77;8.30;;;;;;;7.94;100.00;103007.56;5019263;28;20445;-42
2023/05/27 03:26:50;;;;;;;21.23;8.77;;;;;;;7.98;100.00;103011.66;5012340;28;20470;-42
2023/05/27 03:29:19;;;;;;;28.07;10.50;;;;;;;8.05;100.00;103012.84;5019371;28;20439;-42
2023/05/27 03:31:47;;;;;;;25.63;8.80;;;;;;;8.16;100.00;103009.28;5019385;28;20473;-42
2023/05/27 03:34:15;;;;;;;18.33;8.67;;;;;;;8.18;100.00;103002.88;5019638;28;20453;-42
2023/05/27 03:36:46;;;;;;;23.27;9.03;;;;;;;8.16;100.00;102996.00;5019838;28;20460;-42
2023/05/27 03:39:16;;;;;;;25.33;9.37;;;;;;;8.21;100.00;102996.50;5020079;28;20454;-46
2023/05/27 03:41:44;;;;;;;25.60;10.17;;;;;;;8.32;100.00;103001.78;5020221;28;20452;-43
2023/05/27 03:44:12;;;;;;;25.70;9.17;;;;;;;8.44;100.00;102994.59;5019290;28;20476;-42
2023/05/27 03:46:40;;;;;;;24.87;9.13;;;;;;;8.48;100.00;102985.41;5019567;28;20488;-42
2023/05/27 03:49:08;;;;;;;21.30;9.47;;;;;;;8.50;100.00;102984.31;5019802;28;20425;-43
2023/05/27 03:51:36;;;;;;;17.87;9.47;;;;;;;8.65;100.00;102992.81;5019792;28;20469;-46
2023/05/27 03:54:04;;;;;;;33.10;10.47;;;;;;;8.84;100.00;102993.75;5018984;28;20464;-44
2023/05/27 03:56:33;;;;;;;21.97;9.90;;;;;;;8.98;100.00;102994.41;5020014;28;20473;-45
2023/05/27 03:59:01;;;;;;;29.07;10.43;;;;;;;9.06;100.00;102982.13;5024055;28;20522;-43
2023/05/27 04:01:29;;;;;;;22.23;10.13;;;;;;;9.08;100.00;102990.00;5023068;28;20459;-43
2023/05/27 04:03:57;;;;;;;30.70;11.20;;;;;;;9.10;100.00;103006.69;5023316;28;20429;-47
2023/05/27 04:06:25;;;;;;;22.43;10.63;;;;;;;9.28;100.00;102997.09;5022612;28;20499;-45
2023/05/27 04:08:53;;;;;;;24.90;11.60;;;;;;;9.36;100.00;102987.47;5023553;28;20433;-42
2023/05/27 04:11:22;;;;;;;23.93;11.43;;;;;;;9.49;100.00;102989.06;5023294;28;20452;-42
2023/05/27 04:13:51;;;;;;;27.70;12.70;;;;;;;9.58;100.00;103001.56;5022362;28;20826;-43
2023/05/27 04:16:19;;;;;;;39.23;13.83;;;;;;;9.74;100.00;102989.41;5022791;28;20464;-42
2023/05/27 04:18:48;;;;;;;23.90;10.67;;;;;;;9.86;100.00;102988.31;5022645;28;20433;-44
2023/05/27 04:21:16;;;;;;;35.70;13.80;;;;;;;10.02;100.00;102991.28;5022708;28;20437;-42
2023/05/27 04:23:44;;;;;;;30.93;13.50;;;;;;;10.60;100.00;102985.16;5023021;28;20432;-43
2023/05/27 04:26:12;;;;;;;30.00;12.70;;;;;;;11.33;100.00;102985.22;5021451;28;20473;-42
2023/05/27 04:28:40;;;;;;;26.40;12.57;;;;;;;11.93;100.00;102982.97;5017142;28;20425;-44
2023/05/27 04:31:12;;;;;;;20.70;10.87;;;;;;;12.67;100.00;102968.25;5023541;28;20436;-43
2023/05/27 04:33:40;;;;;;;24.43;10.80;;;;;;;13.49;100.00;102965.06;5022675;28;20571;-43
2023/05/27 04:36:08;;;;;;;20.60;10.73;;;;;;;14.12;100.00;102968.06;5021918;28;20504;-45
2023/05/27 04:38:36;;;;;;;25.07;11.60;;;;;;;14.91;100.00;102962.00;5022390;28;20444;-45
2023/05/27 04:41:04;;;;;;;24.63;11.03;;;;;;;15.15;100.00;102958.41;5022444;28;20504;-45
2023/05/27 04:43:33;;;;;;;22.77;12.10;;;;;;;15.60;100.00;102947.84;5022235;28;20436;-43
2023/05/27 04:46:00;;;;;;;22.33;11.57;;;;;;;15.93;100.00;102951.19;5022141;28;21050;-48
2023/05/27 04:48:30;;;;;;;21.63;10.80;;;;;;;16.05;100.00;102950.59;5022261;28;20432;-43
2023/05/27 04:50:58;;;;;;;27.77;11.73;;;;;;;16.59;100.00;102950.53;5022840;28;20440;-44
2023/05/27 04:53:26;;;;;;;24.80;11.27;;;;;;;16.59;95.24;102945.97;5021624;28;20500;-42
2023/05/27 04:55:53;;;;;;;25.90;11.93;;;;;;;16.52;99.55;102955.75;5022005;28;20460;-42
2023/05/27 04:58:21;;;;;;;17.63;10.33;;;;;;;16.75;93.18;102963.00;5022011;28;20475;-43
2023/05/27 05:00:52;;;;;;;19.30;9.97;;;;;;;17.31;92.19;102956.13;5022432;28;20838;-43
2023/05/27 05:03:36;;;;;;;19.83;12.07;;;;;;;17.46;88.23;102957.81;5022733;28;20433;-44
2023/05/27 05:06:06;;;;;;;25.50;11.33;;;;;;;17.95;79.87;102951.75;5021565;28;20464;-46
2023/05/27 05:08:34;;;;;;;19.37;10.30;;;;;;;18.47;85.79;102956.81;5021498;28;20479;-44
2023/05/27 05:11:02;;;;;;;18.23;11.10;;;;;;;19.38;88.11;102963.91;5022248;28;20467;-43
2023/05/27 05:13:30;;;;;;;20.60;10.70;;;;;;;19.66;78.79;102959.25;5021112;28;20504;-45
2023/05/27 05:15:57;;;;;;;20.03;10.97;;;;;;;19.49;74.79;102957.94;5021122;28;20464;-43
2023/05/27 05:18:25;;;;;;;18.70;10.47;;;;;;;19.21;65.86;102964.22;5021867;28;20447;-44
2023/05/27 05:20:53;;;;;;;19.63;10.60;;;;;;;19.83;72.88;102963.28;5021591;28;20843;-43
2023/05/27 05:23:22;;;;;;;21.13;8.70;;;;;;;20.60;72.32;102962.75;5021815;28;20491;-43
2023/05/27 05:25:54;;;;;;;19.73;8.43;;;;;;;20.52;60.79;102949.44;5021184;28;20495;-43
2023/05/27 05:28:24;;;;;;;18.07;8.60;;;;;;;20.46;64.53;102951.06;5013990;28;20515;-44
2023/05/27 05:30:52;;;;;;;16.23;8.67;;;;;;;20.19;59.66;102962.94;5021340;28;20435;-44
2023/05/27 05:33:20;;;;;;;17.80;9.50;;;;;;;20.74;67.41;102967.97;5021416;28;20468;-43
2023/05/27 05:35:50;;;;;;;21.30;9.30;;;;;;;21.00;57.86;102961.66;5020474;28;20472;-43
2023/05/27 05:38:18;;;;;;;20.07;8.90;;;;;;;20.86;56.99;102957.31;5021125;28;20429;-43
2023/05/27 05:40:49;;;;;;;16.50;8.20;;;;;;;20.88;59.15;102955.19;5021162;28;20472;-46
2023/05/27 05:43:17;;;;;;;20.60;8.50;;;;;;;21.11;59.53;102952.91;5020733;28;20421;-46
2023/05/27 05:45:45;;;;;;;15.50;8.30;;;;;;;21.35;56.21;102945.94;5020316;28;20472;-41
2023/05/27 05:48:13;;;;;;;20.33;9.10;;;;;;;21.60;56.71;102952.28;5021166;28;20431;-47
2023/05/27 05:50:41;;;;;;;15.90;8.20;;;;;;;22.13;53.88;102952.03;5019358;28;20436;-42
2023/05/27 05:53:10;;;;;;;15.93;8.60;;;;;;;21.91;52.63;102956.97;5020192;28;20480;-44
2023/05/27 05:55:38;;;;;;;15.63;7.23;;;;;;;21.80;56.89;102954.91;5018299;28;20956;-43
2023/05/27 05:58:07;;;;;;;14.47;7.30;;;;;;;21.93;52.09;102955.69;5019849;28;20452;-42
2023/05/27 06:00:35;;;;;;;14.83;8.10;;;;;;;21.17;52.51;102959.38;5019619;28;20500;-43
2023/05/27 06:03:02;;;;;;;22.93;10.27;;;;;;;21.63;55.01;102951.00;5019680;28;20429;-45
2023/05/27 06:05:30;;;;;;;14.03;7.50;;;;;;;20.69;52.99;102956.09;5018604;28;20978;-45
2023/05/27 06:07:58;;;;;;;12.83;7.33;;;;;;;20.93;56.97;102955.44;5020176;28;20954;-44
2023/05/27 06:10:26;;;;;;;17.60;8.27;;;;;;;21.34;56.50;102952.41;5019213;28;20496;-47
2023/05/27 06:12:53;;;;;;;13.70;7.53;;;;;;;21.75;53.07;102947.41;5018939;28;20480;-46
2023/05/27 06:15:22;;;;;;;16.47;8.50;;;;;;;21.13;51.57;102953.53;5018983;28;20456;-43
2023/05/27 06:17:50;;;;;;;17.43;8.50;;;;;;;21.47;55.50;102946.94;5019886;28;20468;-45
2023/05/27 06:20:18;;;;;;;16.07;8.17;;;;;;;21.91;53.24;102946.09;5009012;28;20465;-43
2023/05/27 06:22:47;;;;;;;21.00;7.70;;;;;;;22.09;51.83;102958.94;4997626;28;20980;-44
2023/05/27 06:25:15;;;;;;;15.80;8.67;;;;;;;22.65;52.83;102953.50;4999655;28;20484;-45
2023/05/27 06:27:43;;;;;;;19.57;8.70;;;;;;;22.60;49.59;102951.44;5000212;28;20891;-44
2023/05/27 06:30:11;;;;;;;14.00;7.30;;;;;;;22.21;54.13;102952.59;5013810;28;20487;-46
2023/05/27 06:32:40;;;;;;;19.63;8.47;;;;;;;22.59;50.82;102950.59;4996546;28;20428;-43
2023/05/27 06:35:09;;;;;;;16.30;8.17;;;;;;;22.70;50.93;102951.75;4997369;28;20464;-44
2023/05/27 06:37:37;;;;;;;13.10;7.40;;;;;;;22.44;51.26;102951.97;4999116;28;20438;-42
2023/05/27 06:40:05;;;;;;;14.70;7.97;;;;;;;23.00;48.03;102941.81;4999880;28;20437;-42
2023/05/27 06:42:33;;;;;;;14.80;7.60;;;;;;;23.18;48.23;102945.63;4999239;28;20492;-43
2023/05/27 06:45:01;;;;;;;11.30;6.27;;;;;;;23.45;47.98;102952.44;5000067;28;20449;-44
2023/05/27 06:47:29;;;;;;;21.87;8.23;;;;;;;22.75;46.04;102940.22;4974168;28;20441;-45
2023/05/27 06:49:57;;;;;;;18.77;7.93;;;;;;;22.97;49.47;102936.00;4999396;28;20487;-44
2023/05/27 06:52:25;;;;;;;12.50;7.07;;;;;;;23.06;46.37;102942.81;4998719;28;20512;-42
2023/05/27 06:54:53;;;;;;;13.33;6.63;;;;;;;23.26;49.44;102950.75;4998887;28;20564;-45
2023/05/27 06:57:20;;;;;;;16.43;7.80;;;;;;;23.56;48.58;102948.94;4998448;28;20879;-47
2023/05/27 06:59:48;;;;;;;11.20;6.87;;;;;;;23.20;47.18;102947.06;4998576;28;20464;-45
2023/05/27 07:02:16;;;;;;;14.63;7.50;;;;;;;22.63;46.66;102939.25;4999277;28;20426;-45
2023/05/27 07:04:44;;;;;;;20.20;7.60;;;;;;;22.49;49.24;102933.94;4998538;28;20449;-48
2023/05/27 07:07:13;;;;;;;13.47;7.30;;;;;;;22.10;48.20;102944.31;4998652;28;20465;-43
2023/05/27 07:09:41;;;;;;;14.23;6.80;;;;;;;22.33;48.31;102945.38;4999206;28;20588;-44
2023/05/27 07:12:09;;;;;;;11.50;6.30;;;;;;;22.83;47.39;102934.47;4998763;28;20441;-44
2023/05/27 07:14:36;;;;;;;15.90;7.57;;;;;;;23.19;45.19;102931.78;4998451;28;20478;-44
2023/05/27 07:17:04;;;;;;;15.80;6.30;;;;;;;22.52;46.00;102930.75;4992329;28;20588;-43
2023/05/27 07:19:32;;;;;;;21.93;7.60;;;;;;;22.94;49.62;102939.16;4998135;28;20815;-44
2023/05/27 07:22:00;;;;;;;15.20;7.20;;;;;;;23.45;48.61;102938.81;4997684;28;20488;-43
2023/05/27 07:24:32;;;;;;;12.33;7.00;;;;;;;24.10;45.64;102939.78;4998009;28;20454;-42
2023/05/27 07:27:00;;;;;;;15.80;6.80;;;;;;;23.90;43.88;102936.50;4999007;28;20460;-42
2023/05/27 07:29:28;;;;;;;14.80;6.80;;;;;;;23.78;44.84;102941.91;5010927;28;20432;-42
2023/05/27 07:31:56;;;;;;;11.13;6.73;;;;;;;23.88;45.80;102938.66;4998376;28;20503;-43
2023/05/27 07:34:24;;;;;;;16.07;6.30;;;;;;;23.26;42.91;102940.72;4998341;28;20473;-42
2023/05/27 07:36:51;;;;;;;13.23;6.70;;;;;;;22.81;43.69;102929.28;4998489;28;20551;-44
2023/05/27 07:39:19;;;;;;;14.57;7.27;;;;;;;22.78;45.27;102928.91;4997261;28;20532;-43
2023/05/27 07:41:48;;;;;;;12.73;7.10;;;;;;;22.99;43.98;102923.03;4998884;28;20444;-42
2023/05/27 07:44:16;;;;;;;16.30;6.60;;;;;;;22.79;43.86;102928.66;4998808;28;20457;-43
2023/05/27 07:46:45;;;;;;;17.47;7.87;;;;;;;22.21;45.01;102925.41;4995514;28;20537;-42
2023/05/27 07:49:14;;;;;;;12.50;7.10;;;;;;;22.03;46.42;102925.31;4998908;28;20434;-44
2023/05/27 07:51:41;;;;;;;25.57;7.43;;;;;;;22.03;47.07;102922.63;4997860;28;20444;-44
2023/05/27 07:54:09;;;;;;;15.43;7.73;;;;;;;21.83;45.21;102911.03;4998792;28;20583;-45
2023/05/27 07:56:37;;;;;;;17.13;7.40;;;;;;;21.72;47.33;102915.25;4997923;28;20461;-42
2023/05/27 07:59:06;;;;;;;7.93;5.50;;;;;;;21.62;45.46;102924.94;4998626;28;20844;-42
2023/05/27 08:01:33;;;;;;;12.30;7.27;;;;;;;21.59;44.06;102919.94;4998532;28;20441;-43
2023/05/27 08:04:01;;;;;;;12.63;6.83;;;;;;;20.68;45.71;102921.88;4997163;28;20437;-45
2023/05/27 08:06:43;;;;;;;14.47;5.90;;;;;;;20.40;47.40;102914.81;4998631;28;20469;-47
2023/05/27 08:09:11;;;;;;;8.27;6.43;;;;;;;19.86;48.28;102916.84;4998204;28;20440;-45
2023/05/27 08:11:39;;;;;;;11.47;7.40;;;;;;;19.35;49.49;102911.03;4998124;28;20532;-42
2023/05/27 08:14:08;;;;;;;11.17;6.67;;;;;;;19.47;49.99;102916.72;4999222;28;20479;-45
2023/05/27 08:16:36;;;;;;;14.97;6.47;;;;;;;18.95;51.35;102901.03;4995659;28;20465;-47
2023/05/27 08:19:03;;;;;;;18.80;7.47;;;;;;;18.82;51.43;102915.31;4999052;28;20456;-45
2023/05/27 08:21:31;;;;;;;10.50;5.83;;;;;;;19.24;49.71;102904.31;4998021;28;20441;-43
2023/05/27 08:23:59;;;;;;;15.40;7.00;;;;;;;19.22;49.97;102902.84;4998862;28;20434;-42
2023/05/27 08:26:27;;;;;;;9.43;5.90;;;;;;;19.19;49.05;102900.53;4998395;28;20796;-46
2023/05/27 08:28:54;;;;;;;16.83;6.43;;;;;;;19.37;50.24;102905.41;5005111;28;20432;-45
2023/05/27 08:31:23;;;;;;;13.90;6.33;;;;;;;19.68;48.26;102903.03;4987533;28;20516;-46
2023/05/27 08:33:51;;;;;;;12.93;5.93;;;;;;;19.75;47.36;102899.31;4998978;28;20816;-44
2023/05/27 08:36:19;;;;;;;12.57;6.70;;;;;;;20.15;47.24;102893.94;4998532;28;20465;-43
2023/05/27 08:38:47;;;;;;;10.50;6.53;;;;;;;19.69;46.95;102899.28;4998373;28;20437;-42
2023/05/27 08:41:15;;;;;;;12.23;6.47;;;;;;;19.89;48.09;102898.28;4996535;28;20473;-46
2023/05/27 08:43:44;;;;;;;13.13;6.90;;;;;;;19.62;48.03;102880.31;4998990;28;20520;-42
2023/05/27 08:46:13;;;;;;;11.50;6.33;;;;;;;19.55;47.76;102886.75;4998077;28;20465;-43
2023/05/27 08:48:43;;;;;;;12.50;6.40;;;;;;;19.35;48.32;102879.38;5001438;28;20461;-48
2023/05/27 08:51:13;;;;;;;12.53;6.97;;;;;;;19.05;49.30;102872.63;5001934;28;20934;-42
2023/05/27 08:53:41;;;;;;;16.63;6.40;;;;;;;18.94;49.39;102872.31;4987873;28;20772;-45
2023/05/27 08:56:12;;;;;;;9.93;5.90;;;;;;;18.85;49.49;102862.72;5000607;28;20462;-42
2023/05/27 08:58:42;;;;;;;14.27;6.33;;;;;;;19.01;49.40;102868.63;5001618;28;20457;-43
2023/05/27 09:01:10;;;;;;;6.60;5.40;;;;;;;18.50;50.62;102865.44;5002838;28;20440;-44
2023/05/27 09:03:38;;;;;;;11.77;6.10;;;;;;;18.50;51.33;102859.19;5002200;28;20864;-44
2023/05/27 09:06:08;;;;;;;15.00;6.40;;;;;;;18.41;52.86;102847.66;5001471;28;20438;-44
2023/05/27 09:08:35;;;;;;;9.73;5.83;;;;;;;18.34;52.57;102857.56;4998899;28;20516;-45
2023/05/27 09:11:23;;;;;;;10.10;6.50;;;;;;;18.39;53.45;102852.44;5001354;28;20529;-44
2023/05/27 09:13:51;;;;;;;15.17;7.13;;;;;;;18.31;56.40;102840.94;5001849;28;20434;-42
2023/05/27 09:16:22;;;;;;;15.00;6.87;;;;;;;18.19;54.79;102849.56;5001545;28;20541;-46
2023/05/27 09:18:50;;;;;;;11.70;6.30;;;;;;;18.00;56.00;102841.31;4993680;28;20462;-43
2023/05/27 09:21:19;;;;;;;12.60;6.87;;;;;;;18.41;54.18;102842.25;5001314;28;20987;-46
2023/05/27 09:23:47;;;;;;;9.10;6.20;;;;;;;18.63;54.98;102835.78;5001161;28;20444;-46
2023/05/27 09:26:15;;;;;;;10.17;6.87;;;;;;;18.56;55.05;102840.31;5001934;28;20536;-45
2023/05/27 09:28:43;;;;;;;13.93;6.57;;;;;;;18.31;53.97;102832.84;5002701;28;20489;-47
2023/05/27 09:31:11;;;;;;;11.40;6.53;;;;;;;18.58;51.50;102829.28;5002578;28;20433;-45
2023/05/27 09:33:40;;;;;;;13.13;7.03;;;;;;;19.19;52.57;102825.66;5000666;28;20433;-47
2023/05/27 09:36:09;;;;;;;14.23;5.73;;;;;;;19.75;51.77;102811.84;5001457;28;20485;-47
2023/05/27 09:38:38;;;;;;;12.93;5.53;;;;;;;19.84;49.15;102821.41;4999959;28;20465;-43
2023/05/27 09:41:06;;;;;;;10.40;6.00;;;;;;;19.90;47.20;102826.00;4986590;28;20436;-43
2023/05/27 09:43:33;;;;;;;8.20;5.10;;;;;;;19.89;48.85;102822.47;5000515;28;20545;-43
2023/05/27 09:46:14;;;;;;;12.37;5.80;;;;;;;20.32;49.76;102816.63;5001696;28;20486;-45
2023/05/27 09:48:42;;;;;;;10.80;5.80;;;;;;;20.11;46.84;102824.97;4978445;28;20461;-43
2023/05/27 09:51:10;;;;;;;12.00;5.87;;;;;;;19.65;47.31;102817.66;5001570;28;20460;-43
2023/05/27 09:53:40;;;;;;;11.87;5.83;;;;;;;20.34;49.19;102817.25;5001591;28;20448;-42
2023/05/27 09:56:08;;;;;;;11.70;6.00;;;;;;;20.47;46.74;102816.41;5000135;28;20481;-43
2023/05/27 09:58:36;;;;;;;10.70;5.60;;;;;;;20.59;47.23;102815.53;5000476;28;20536;-42
2023/05/27 10:01:04;;;;;;;10.83;5.43;;;;;;;20.72;45.85;102812.81;5000938;28;20495;-48
2023/05/27 10:03:33;;;;;;;8.43;6.00;;;;;;;20.79;46.30;102816.28;4998821;28;20470;-43
2023/05/27 10:06:02;;;;;;;11.00;6.30;;;;;;;20.60;44.51;102805.53;4993409;28;20532;-43
2023/05/27 10:08:30;;;;;;;9.40;5.40;;;;;;;20.39;45.83;102815.59;4988705;28;20528;-44
2023/05/27 10:10:59;;;;;;;6.57;5.47;;;;;;;20.50;43.92;102811.38;4993915;28;20437;-44
2023/05/27 10:13:28;;;;;;;8.43;5.93;;;;;;;20.69;46.38;102805.09;4981468;28;20430;-46
2023/05/27 10:15:56;;;;;;;11.60;5.67;;;;;;;20.95;44.25;102798.72;4993160;28;20477;-43
2023/05/27 10:18:26;;;;;;;11.27;6.20;;;;;;;21.29;45.52;102800.25;4992977;28;20492;-42
2023/05/27 10:20:55;;;;;;;8.17;5.63;;;;;;;21.47;43.69;102797.63;4993584;28;20795;-45
2023/05/27 10:23:26;;;;;;;7.60;5.70;;;;;;;21.86;43.65;102794.59;4991692;28;20437;-43
2023/05/27 10:25:56;;;;;;;11.83;5.77;;;;;;;21.65;43.61;102792.28;4993355;28;20468;-45
2023/05/27 10:28:27;;;;;;;13.73;6.07;;;;;;;21.55;42.15;102781.06;5000043;28;20460;-43
2023/05/27 10:31:04;;;;;;;9.70;5.30;;;;;;;21.59;41.23;102781.47;4995171;28;20430;-47
2023/05/27 10:33:35;;;;;;;11.73;6.53;;;;;;;21.83;41.21;102786.88;4984334;28;20433;-48
2023/05/27 10:36:10;;;;;;;7.70;5.33;;;;;;;21.32;41.10;102781.66;4993341;28;20480;-45
2023/05/27 10:38:39;;;;;;;7.33;5.47;;;;;;;20.63;42.16;102778.00;4992338;28;20488;-44
2023/05/27 10:41:08;;;;;;;6.57;5.43;;;;;;;20.75;40.80;102773.56;4987903;28;20484;-44
2023/05/27 10:43:37;;;;;;;8.03;5.77;;;;;;;21.00;42.28;102774.47;4992831;28;20504;-43
2023/05/27 10:46:08;;;;;;;7.73;6.53;;;;;;;21.26;41.36;102762.69;4993162;28;20457;-46
2023/05/27 10:48:37;;;;;;;10.07;6.30;;;;;;;21.35;43.21;102770.38;4985773;28;20470;-48
2023/05/27 10:51:05;;;;;;;8.70;5.40;;;;;;;21.48;42.05;102762.09;4992477;28;20455;-46
2023/05/27 10:53:36;;;;;;;9.40;6.10;;;;;;;21.74;41.66;102768.41;4992484;28;20466;-44
2023/05/27 10:56:05;;;;;;;7.50;6.20;;;;;;;21.92;41.06;102763.84;4992766;28;20473;-44
2023/05/27 10:58:35;;;;;;;14.93;7.80;;;;;;;21.09;38.48;102761.53;4992069;28;21028;-43
2023/05/27 11:01:10;;;;;;;9.27;6.37;;;;;;;21.02;41.09;102758.84;4992709;28;20915;-43
2023/05/27 11:03:44;;;;;;;8.17;5.40;;;;;;;21.48;41.89;102759.41;4987157;28;20437;-43
2023/05/27 11:06:14;;;;;;;8.40;5.50;;;;;;;21.40;41.64;102756.97;4991686;28;20456;-46
2023/05/27 11:08:43;;;;;;;7.50;5.50;;;;;;;20.28;40.47;102750.38;4992213;28;20536;-44
2023/05/27 11:11:12;;;;;;;9.07;5.67;;;;;;;20.32;42.15;102754.31;4992511;28;20448;-46
2023/05/27 11:13:44;;;;;;;11.50;6.10;;;;;;;20.84;41.47;102753.31;4992372;28;20442;-45
2023/05/27 11:16:17;;;;;;;7.00;5.43;;;;;;;20.77;42.25;102760.63;4992199;28;20487;-43
2023/05/27 11:18:46;;;;;;;11.93;6.47;;;;;;;20.69;40.55;102741.91;4988417;28;20500;-46
2023/05/27 11:21:16;;;;;;;6.43;5.20;;;;;;;20.51;41.64;102744.47;4991511;28;20437;-42
2023/05/27 11:23:46;;;;;;;8.50;5.77;;;;;;;20.67;42.35;102746.72;4991507;28;20456;-42